Time,TemperatureF,DewpointF,PressureIn,WindDirection,WindDirectionDegrees,WindSpeedMPH,WindSpeedGustMPH,Humidity,HourlyPrecipIn,Conditions,Clouds,dailyrainin,SoftwareType,DateUTC
2013-01-26 00:06:00,17.2,13.0,30.07,NNE,16,0.0,3.0,84,0.00,,,0.00,weatherlink.com 1.10,2013-01-26 05:06:00,
2013-01-26 00:21:00,17.2,13.0,30.07,NNE,12,2.0,2.0,84,0.00,,,0.00,weatherlink.com 1.10,2013-01-26 05:21:00,
2013-01-26 00:36:00,16.9,13.0,30.07,ENE,67,0.0,0.0,84,0.00,,,0.00,weatherlink.com 1.10,2013-01-26 05:36:00,
2013-01-26 00:51:00,16.8,13.0,30.07,North,354,0.0,2.0,84,0.00,,,0.00,weatherlink.com 1.10,2013-01-26 05:51:00,
2013-01-26 01:06:00,16.6,13.0,30.06,NNW,347,0.0,1.0,84,0.00,,,0.00,weatherlink.com 1.10,2013-01-26 06:06:00,
2013-01-26 01:21:00,16.5,13.0,30.07,NNE,30,0.0,2.0,84,0.00,,,0.00,weatherlink.com 1.10,2013-01-26 06:21:00,
2013-01-26 01:36:00,16.3,12.0,30.07,NNE,33,0.0,2.0,84,0.00,,,0.00,weatherlink.com 1.10,2013-01-26 06:36:00,
2013-01-26 01:51:00,16.1,12.0,30.07,NE,42,2.0,3.0,84,0.00,,,0.00,weatherlink.com 1.10,2013-01-26 06:51:00,
2013-01-26 02:06:00,16.0,12.0,30.07,NE,41,0.0,3.0,83,0.00,,,0.00,weatherlink.com 1.10,2013-01-26 07:06:00,
2013-01-26 02:21:00,15.8,12.0,30.06,NNW,344,0.0,3.0,83,0.00,,,0.00,weatherlink.com 1.10,2013-01-26 07:21:00,
2013-01-26 02:36:00,15.6,11.0,30.06,NNE,13,0.0,2.0,83,0.00,,,0.00,weatherlink.com 1.10,2013-01-26 07:36:00,
2013-01-26 02:51:00,15.5,11.0,30.05,NE,43,0.0,1.0,83,0.00,,,0.00,weatherlink.com 1.10,2013-01-26 07:51:00,
2013-01-26 03:06:00,15.6,11.0,30.05,North,350,0.0,5.0,82,0.00,,,0.00,weatherlink.com 1.10,2013-01-26 08:06:00,
2013-01-26 03:21:00,15.6,11.0,30.05,NNW,335,2.0,4.0,82,0.00,,,0.00,weatherlink.com 1.10,2013-01-26 08:21:00,
2013-01-26 03:36:00,15.6,11.0,30.05,NE,44,2.0,3.0,81,0.00,,,0.00,weatherlink.com 1.10,2013-01-26 08:36:00,
2013-01-26 03:51:00,15.6,11.0,30.05,NE,37,0.0,6.0,80,0.00,,,0.00,weatherlink.com 1.10,2013-01-26 08:51:00,
2013-01-26 04:06:00,15.6,10.0,30.05,NNE,26,3.0,4.0,79,0.00,,,0.00,weatherlink.com 1.10,2013-01-26 09:06:00,
2013-01-26 04:21:00,15.5,10.0,30.05,NNW,338,0.0,4.0,79,0.00,,,0.00,weatherlink.com 1.10,2013-01-26 09:21:00,
2013-01-26 04:36:00,15.4,10.0,30.05,NNW,337,0.0,3.0,79,0.00,,,0.00,weatherlink.com 1.10,2013-01-26 09:36:00,
2013-01-26 04:51:00,15.2,10.0,30.06,North,359,0.0,3.0,79,0.00,,,0.00,weatherlink.com 1.10,2013-01-26 09:51:00,
2013-01-26 05:06:00,15.2,10.0,30.07,ENE,58,2.0,3.0,78,0.00,,,0.00,weatherlink.com 1.10,2013-01-26 10:06:00,
2013-01-26 05:21:00,15.2,9.0,30.07,NE,40,1.0,2.0,77,0.00,,,0.00,weatherlink.com 1.10,2013-01-26 10:21:00,
2013-01-26 05:36:00,15.3,9.0,30.08,North,354,3.0,3.0,77,0.00,,,0.00,weatherlink.com 1.10,2013-01-26 10:36:00,
2013-01-26 05:51:00,15.3,9.0,30.08,NNE,27,0.0,5.0,76,0.00,,,0.00,weatherlink.com 1.10,2013-01-26 10:51:00,
2013-01-26 06:06:00,15.1,9.0,30.09,North,9,2.0,5.0,76,0.00,,,0.00,weatherlink.com 1.10,2013-01-26 11:06:00,
2013-01-26 06:21:00,15.0,9.0,30.09,NE,46,0.0,4.0,76,0.00,,,0.00,weatherlink.com 1.10,2013-01-26 11:21:00,
2013-01-26 06:36:00,14.8,9.0,30.09,NE,47,0.0,3.0,76,0.00,,,0.00,weatherlink.com 1.10,2013-01-26 11:36:00,
2013-01-26 06:51:00,14.7,8.0,30.10,NW,324,2.0,3.0,76,0.00,,,0.00,weatherlink.com 1.10,2013-01-26 11:51:00,
2013-01-26 07:06:00,14.8,9.0,30.11,NNE,26,1.0,3.0,76,0.00,,,0.00,weatherlink.com 1.10,2013-01-26 12:06:00,
2013-01-26 07:21:00,14.9,9.0,30.12,North,1,2.0,4.0,76,0.00,,,0.00,weatherlink.com 1.10,2013-01-26 12:21:00,
2013-01-26 07:36:00,15.0,8.0,30.12,NNE,15,2.0,5.0,75,0.00,,,0.00,weatherlink.com 1.10,2013-01-26 12:36:00,
2013-01-26 07:51:00,15.4,9.0,30.13,NE,47,0.0,2.0,75,0.00,,,0.00,weatherlink.com 1.10,2013-01-26 12:51:00,
2013-01-26 08:06:00,15.9,9.0,30.14,NW,321,0.0,4.0,74,0.00,,,0.00,weatherlink.com 1.10,2013-01-26 13:06:00,
2013-01-26 08:21:00,16.6,9.0,30.14,North,8,0.0,5.0,72,0.00,,,0.00,weatherlink.com 1.10,2013-01-26 13:21:00,
2013-01-26 08:37:00,17.2,9.0,30.14,North,10,2.0,3.0,71,0.00,,,0.00,weatherlink.com 1.10,2013-01-26 13:37:00,
2013-01-26 08:52:00,17.9,9.0,30.14,North,356,4.0,7.0,69,0.00,,,0.00,weatherlink.com 1.10,2013-01-26 13:52:00,
2013-01-26 09:07:00,18.2,9.0,30.14,NE,47,1.0,6.0,68,0.00,,,0.00,weatherlink.com 1.10,2013-01-26 14:07:00,
2013-01-26 09:22:00,18.8,10.0,30.15,ENE,63,4.0,6.0,68,0.00,,,0.00,weatherlink.com 1.10,2013-01-26 14:22:00,
2013-01-26 09:37:00,19.4,10.0,30.15,NW,311,1.0,5.0,66,0.00,,,0.00,weatherlink.com 1.10,2013-01-26 14:37:00,
2013-01-26 09:52:00,20.0,10.0,30.16,NNE,25,1.0,7.0,65,0.00,,,0.00,weatherlink.com 1.10,2013-01-26 14:52:00,
2013-01-26 10:07:00,21.7,11.0,30.16,NNW,338,3.0,5.0,63,0.00,,,0.00,weatherlink.com 1.10,2013-01-26 15:07:00,
2013-01-26 10:22:00,22.9,11.0,30.16,North,352,2.0,5.0,61,0.00,,,0.00,weatherlink.com 1.10,2013-01-26 15:22:00,
2013-01-26 10:37:00,22.5,10.0,30.16,NNW,340,2.0,7.0,60,0.00,,,0.00,weatherlink.com 1.10,2013-01-26 15:37:00,
2013-01-26 10:52:00,22.4,10.0,30.16,WNW,297,1.0,8.0,59,0.00,,,0.00,weatherlink.com 1.10,2013-01-26 15:52:00,
2013-01-26 11:07:00,22.6,10.0,30.16,North,8,2.0,8.0,59,0.00,,,0.00,weatherlink.com 1.10,2013-01-26 16:07:00,
2013-01-26 11:22:00,23.8,11.0,30.17,NNW,342,3.0,6.0,59,0.00,,,0.00,weatherlink.com 1.10,2013-01-26 16:22:00,
2013-01-26 11:37:00,24.3,11.0,30.16,North,353,3.0,6.0,56,0.00,,,0.00,weatherlink.com 1.10,2013-01-26 16:37:00,
2013-01-26 11:52:00,24.1,11.0,30.16,NE,47,2.0,7.0,57,0.00,,,0.00,weatherlink.com 1.10,2013-01-26 16:52:00,
2013-01-26 12:07:00,24.8,11.0,30.15,NE,39,1.0,6.0,56,0.00,,,0.00,weatherlink.com 1.10,2013-01-26 17:07:00,
2013-01-26 12:22:00,25.2,12.0,30.14,East,79,0.0,7.0,57,0.00,,,0.00,weatherlink.com 1.10,2013-01-26 17:22:00,
2013-01-26 12:37:00,26.8,12.0,30.14,NNW,332,3.0,6.0,53,0.00,,,0.00,weatherlink.com 1.10,2013-01-26 17:37:00,
2013-01-26 12:52:00,27.3,10.0,30.13,NNE,13,1.0,10.0,49,0.00,,,0.00,weatherlink.com 1.10,2013-01-26 17:52:00,
2013-01-26 13:07:00,27.5,10.0,30.13,WNW,289,1.0,5.0,48,0.00,,,0.00,weatherlink.com 1.10,2013-01-26 18:07:00,
2013-01-26 13:22:00,27.3,9.0,30.13,ENE,60,3.0,7.0,46,0.00,,,0.00,weatherlink.com 1.10,2013-01-26 18:22:00,
2013-01-26 13:37:00,27.8,10.0,30.14,NNE,13,2.0,7.0,47,0.00,,,0.00,weatherlink.com 1.10,2013-01-26 18:37:00,
2013-01-26 13:52:00,28.4,9.0,30.14,North,359,4.0,7.0,44,0.00,,,0.00,weatherlink.com 1.10,2013-01-26 18:52:00,
2013-01-26 14:07:00,27.5,8.0,30.14,NNW,342,3.0,5.0,44,0.00,,,0.00,weatherlink.com 1.10,2013-01-26 19:07:00,
2013-01-26 14:22:00,27.0,8.0,30.13,NNE,29,1.0,9.0,45,0.00,,,0.00,weatherlink.com 1.10,2013-01-26 19:22:00,
2013-01-26 14:37:00,26.9,8.0,30.14,NNW,340,2.0,8.0,45,0.00,,,0.00,weatherlink.com 1.10,2013-01-26 19:37:00,
2013-01-26 14:52:00,26.8,8.0,30.15,NNE,12,7.0,8.0,45,0.00,,,0.00,weatherlink.com 1.10,2013-01-26 19:52:00,
2013-01-26 15:07:00,26.7,7.0,30.15,NE,53,5.0,8.0,44,0.00,,,0.00,weatherlink.com 1.10,2013-01-26 20:07:00,
2013-01-26 15:22:00,26.9,7.0,30.16,NNE,14,4.0,10.0,43,0.00,,,0.00,weatherlink.com 1.10,2013-01-26 20:22:00,
2013-01-26 15:37:00,27.1,7.0,30.16,NNW,347,7.0,10.0,42,0.00,,,0.00,weatherlink.com 1.10,2013-01-26 20:37:00,
2013-01-26 15:52:00,27.1,7.0,30.16,ENE,68,2.0,10.0,42,0.00,,,0.00,weatherlink.com 1.10,2013-01-26 20:52:00,
2013-01-26 16:07:00,27.0,7.0,30.17,NNE,32,3.0,10.0,42,0.00,,,0.00,weatherlink.com 1.10,2013-01-26 21:07:00,
2013-01-26 16:22:00,26.7,7.0,30.17,NE,43,1.0,9.0,43,0.00,,,0.00,weatherlink.com 1.10,2013-01-26 21:22:00,
2013-01-26 16:37:00,26.4,6.0,30.18,SW,228,2.0,11.0,42,0.00,,,0.00,weatherlink.com 1.10,2013-01-26 21:37:00,
2013-01-26 16:53:00,26.1,6.0,30.19,North,6,7.0,10.0,43,0.00,,,0.00,weatherlink.com 1.10,2013-01-26 21:53:00,
2013-01-26 17:08:00,25.9,6.0,30.20,NNW,345,3.0,11.0,43,0.00,,,0.00,weatherlink.com 1.10,2013-01-26 22:08:00,
2013-01-26 17:23:00,25.5,6.0,30.21,NNW,347,9.0,11.0,44,0.00,,,0.00,weatherlink.com 1.10,2013-01-26 22:23:00,
2013-01-26 17:38:00,25.2,7.0,30.21,NNE,25,3.0,9.0,45,0.00,,,0.00,weatherlink.com 1.10,2013-01-26 22:38:00,
2013-01-26 17:53:00,24.8,6.0,30.23,NNW,337,2.0,13.0,45,0.00,,,0.00,weatherlink.com 1.10,2013-01-26 22:53:00,
2013-01-26 18:08:00,24.4,6.0,30.25,NNE,18,3.0,12.0,46,0.00,,,0.00,weatherlink.com 1.10,2013-01-26 23:08:00,
2013-01-26 18:23:00,24.1,6.0,30.24,NNE,26,5.0,12.0,47,0.00,,,0.00,weatherlink.com 1.10,2013-01-26 23:23:00,
2013-01-26 18:38:00,23.8,6.0,30.25,NNW,342,4.0,9.0,47,0.00,,,0.00,weatherlink.com 1.10,2013-01-26 23:38:00,
2013-01-26 18:53:00,23.5,6.0,30.27,NW,326,2.0,10.0,48,0.00,,,0.00,weatherlink.com 1.10,2013-01-26 23:53:00,
2013-01-26 19:08:00,23.2,7.0,30.27,NE,41,4.0,6.0,49,0.00,,,0.00,weatherlink.com 1.10,2013-01-27 00:08:00,
2013-01-26 19:23:00,23.0,6.0,30.27,NE,46,4.0,8.0,49,0.00,,,0.00,weatherlink.com 1.10,2013-01-27 00:23:00,
2013-01-26 19:38:00,22.7,6.0,30.27,NE,36,10.0,10.0,49,0.00,,,0.00,weatherlink.com 1.10,2013-01-27 00:38:00,
2013-01-26 19:53:00,22.5,6.0,30.28,NE,36,2.0,9.0,50,0.00,,,0.00,weatherlink.com 1.10,2013-01-27 00:53:00,
2013-01-26 20:08:00,22.3,7.0,30.29,NE,36,3.0,7.0,51,0.00,,,0.00,weatherlink.com 1.10,2013-01-27 01:08:00,
2013-01-26 20:23:00,22.1,7.0,30.30,NW,325,3.0,7.0,52,0.00,,,0.00,weatherlink.com 1.10,2013-01-27 01:23:00,
2013-01-26 20:38:00,21.9,7.0,30.31,North,353,4.0,6.0,52,0.00,,,0.00,weatherlink.com 1.10,2013-01-27 01:38:00,
2013-01-26 20:53:00,21.8,7.0,30.32,NW,319,4.0,9.0,52,0.00,,,0.00,weatherlink.com 1.10,2013-01-27 01:53:00,
2013-01-26 21:08:00,21.7,7.0,30.32,NNW,335,2.0,7.0,53,0.00,,,0.00,weatherlink.com 1.10,2013-01-27 02:08:00,
2013-01-26 21:23:00,21.4,7.0,30.33,NNE,23,1.0,6.0,54,0.00,,,0.00,weatherlink.com 1.10,2013-01-27 02:23:00,
2013-01-26 21:38:00,21.2,7.0,30.34,WNW,302,1.0,4.0,55,0.00,,,0.00,weatherlink.com 1.10,2013-01-27 02:38:00,
2013-01-26 21:53:00,21.0,7.0,30.34,West,269,1.0,6.0,55,0.00,,,0.00,weatherlink.com 1.10,2013-01-27 02:53:00,
2013-01-26 22:08:00,20.9,7.0,30.35,NNW,341,4.0,7.0,56,0.00,,,0.00,weatherlink.com 1.10,2013-01-27 03:08:00,
2013-01-26 22:23:00,20.7,7.0,30.36,NNE,30,1.0,7.0,56,0.00,,,0.00,weatherlink.com 1.10,2013-01-27 03:23:00,
2013-01-26 22:38:00,20.6,7.0,30.37,NNE,25,2.0,7.0,57,0.00,,,0.00,weatherlink.com 1.10,2013-01-27 03:38:00,
2013-01-26 22:53:00,20.5,7.0,30.37,ENE,58,1.0,6.0,57,0.00,,,0.00,weatherlink.com 1.10,2013-01-27 03:53:00,
2013-01-26 23:08:00,20.3,8.0,30.37,NW,318,3.0,5.0,58,0.00,,,0.00,weatherlink.com 1.10,2013-01-27 04:08:00,
2013-01-26 23:23:00,20.1,8.0,30.37,NNW,346,3.0,6.0,59,0.00,,,0.00,weatherlink.com 1.10,2013-01-27 04:23:00,
2013-01-26 23:38:00,19.9,8.0,30.37,NNW,335,0.0,5.0,59,0.00,,,0.00,weatherlink.com 1.10,2013-01-27 04:38:00,
2013-01-26 23:53:00,19.8,8.0,30.38,NNE,15,2.0,6.0,60,0.00,,,0.00,weatherlink.com 1.10,2013-01-27 04:53:00,